AUA25M LOWW-EDDH
Flight info
| Callsign | AUA25M |
|---|---|
| Flight time | 1h 10m |
| Altitude | 36000 |
| Route | LANUX DCT LALUK DCT MILGU DCT SOGMA M748 RARUP RARUP3P |
| Aircraft | A320/M-SDE3FGHIRWY/LB1 |
Departure
| Time | 2026-04-22 17:39 |
|---|---|
| Airport | Vienna International Airport (LOWW) |
Arrival
| Time | 2026-04-22 18:50 |
|---|---|
| Airport | Hamburg Helmut Schmidt Airport (EDDH) |
| Time | Latitude | Longitude | Altitude | Speed | Heading |
|---|---|---|---|---|---|
| 2026-04-22 17:13 | 48.11673 | 16.56897 | 625 ft | 0 kts | 24° |
| 2026-04-22 17:13 | 48.11674 | 16.56899 | 625 ft | 0 kts | 25° |
| 2026-04-22 17:28 | 48.11665 | 16.56893 | 623 ft | 4 kts | 25° |
| 2026-04-22 17:28 | 48.11641 | 16.56876 | 617 ft | 4 kts | 27° |
| 2026-04-22 17:28 | 48.11618 | 16.56855 | 620 ft | 4 kts | 46° |
| 2026-04-22 17:28 | 48.11608 | 16.56829 | 621 ft | 2 kts | 114° |
| 2026-04-22 17:29 | 48.11609 | 16.56827 | 621 ft | 0 kts | 116° |
| 2026-04-22 17:34 | 48.11605 | 16.56837 | 615 ft | 1 kts | 116° |
| 2026-04-22 17:35 | 48.11603 | 16.56844 | 614 ft | 1 kts | 116° |
| 2026-04-22 17:35 | 48.11577 | 16.56910 | 615 ft | 8 kts | 147° |
| 2026-04-22 17:35 | 48.11517 | 16.56910 | 612 ft | 14 kts | 198° |
| 2026-04-22 17:35 | 48.11431 | 16.56852 | 611 ft | 13 kts | 205° |
| 2026-04-22 17:36 | 48.11356 | 16.56837 | 613 ft | 10 kts | 148° |
| 2026-04-22 17:36 | 48.11326 | 16.56924 | 615 ft | 9 kts | 115° |
| 2026-04-22 17:36 | 48.11301 | 16.56999 | 609 ft | 7 kts | 117° |
| 2026-04-22 17:36 | 48.11279 | 16.57062 | 614 ft | 6 kts | 118° |
| 2026-04-22 17:37 | 48.11262 | 16.57115 | 617 ft | 5 kts | 115° |
| 2026-04-22 17:37 | 48.11249 | 16.57158 | 618 ft | 5 kts | 114° |
| 2026-04-22 17:37 | 48.11217 | 16.57266 | 614 ft | 13 kts | 116° |
| 2026-04-22 17:37 | 48.11176 | 16.57383 | 614 ft | 14 kts | 116° |
| 2026-04-22 17:38 | 48.11124 | 16.57505 | 613 ft | 13 kts | 154° |
| 2026-04-22 17:38 | 48.11044 | 16.57503 | 614 ft | 11 kts | 207° |
| 2026-04-22 17:38 | 48.10979 | 16.57459 | 609 ft | 9 kts | 203° |
| 2026-04-22 17:38 | 48.10973 | 16.57354 | 617 ft | 19 kts | 297° |
| 2026-04-22 17:39 | 48.11143 | 16.56835 | 620 ft | 90 kts | 296° |
| 2026-04-22 17:39 | 48.11505 | 16.55724 | 620 ft | 145 kts | 296° |
| 2026-04-22 17:39 | 48.12126 | 16.52713 | 1713 ft | 162 kts | 268° |
| 2026-04-22 17:40 | 48.11956 | 16.50989 | 2143 ft | 177 kts | 266° |
| 2026-04-22 17:40 | 48.11763 | 16.49072 | 2474 ft | 195 kts | 265° |
| 2026-04-22 17:40 | 48.11625 | 16.46979 | 2865 ft | 207 kts | 278° |
| 2026-04-22 17:40 | 48.11834 | 16.44807 | 3383 ft | 218 kts | 283° |
| 2026-04-22 17:41 | 48.12086 | 16.42443 | 3773 ft | 242 kts | 283° |
| 2026-04-22 17:41 | 48.12362 | 16.39872 | 4379 ft | 256 kts | 283° |
| 2026-04-22 17:41 | 48.12640 | 16.37221 | 5235 ft | 260 kts | 283° |
| 2026-04-22 17:41 | 48.12915 | 16.34570 | 6122 ft | 262 kts | 283° |
| 2026-04-22 17:42 | 48.13197 | 16.31859 | 6962 ft | 266 kts | 283° |
| 2026-04-22 17:42 | 48.13489 | 16.29070 | 7788 ft | 269 kts | 283° |
| 2026-04-22 17:42 | 48.13776 | 16.26317 | 8582 ft | 273 kts | 283° |
| 2026-04-22 17:42 | 48.14205 | 16.23540 | 9358 ft | 274 kts | 295° |
| 2026-04-22 17:43 | 48.15141 | 16.21073 | 10146 ft | 273 kts | 312° |
| 2026-04-22 17:43 | 48.16535 | 16.19089 | 10568 ft | 286 kts | 328° |
| 2026-04-22 17:43 | 48.18356 | 16.17647 | 10767 ft | 307 kts | 336° |
| 2026-04-22 17:43 | 48.20355 | 16.16206 | 10915 ft | 331 kts | 336° |
| 2026-04-22 17:44 | 48.22492 | 16.14656 | 11142 ft | 349 kts | 336° |
| 2026-04-22 17:44 | 48.24694 | 16.13040 | 11714 ft | 355 kts | 336° |
| 2026-04-22 17:44 | 48.26925 | 16.11390 | 12355 ft | 359 kts | 336° |
| 2026-04-22 17:44 | 48.29177 | 16.09712 | 13004 ft | 363 kts | 336° |
| 2026-04-22 17:45 | 48.30680 | 16.08588 | 13428 ft | 366 kts | 336° |
| 2026-04-22 17:45 | 48.33762 | 16.06278 | 14253 ft | 370 kts | 336° |
| 2026-04-22 17:45 | 48.36071 | 16.04551 | 14842 ft | 374 kts | 336° |
| 2026-04-22 17:45 | 48.38407 | 16.02808 | 15432 ft | 377 kts | 336° |
| 2026-04-22 17:46 | 48.40765 | 16.01052 | 15999 ft | 380 kts | 336° |
| 2026-04-22 17:46 | 48.43147 | 15.99278 | 16562 ft | 383 kts | 337° |
| 2026-04-22 17:46 | 48.45548 | 15.97487 | 17132 ft | 387 kts | 337° |
| 2026-04-22 17:46 | 48.47938 | 15.95703 | 17686 ft | 390 kts | 337° |
| 2026-04-22 17:47 | 48.50385 | 15.93871 | 18242 ft | 393 kts | 337° |
| 2026-04-22 17:47 | 48.52841 | 15.92025 | 18752 ft | 396 kts | 337° |
| 2026-04-22 17:47 | 48.55323 | 15.90160 | 19205 ft | 399 kts | 337° |
| 2026-04-22 17:47 | 48.57816 | 15.88266 | 19647 ft | 403 kts | 336° |
| 2026-04-22 17:48 | 48.59461 | 15.86947 | 19935 ft | 405 kts | 335° |
| 2026-04-22 17:48 | 48.62768 | 15.84144 | 20511 ft | 409 kts | 334° |
| 2026-04-22 17:48 | 48.65242 | 15.81978 | 20918 ft | 412 kts | 334° |
| 2026-04-22 17:48 | 48.67733 | 15.79786 | 21277 ft | 416 kts | 334° |
| 2026-04-22 17:49 | 48.70249 | 15.77587 | 21648 ft | 419 kts | 334° |
| 2026-04-22 17:49 | 48.72787 | 15.75387 | 22025 ft | 422 kts | 334° |
| 2026-04-22 17:49 | 48.75344 | 15.73184 | 22402 ft | 424 kts | 335° |
| 2026-04-22 17:49 | 48.77918 | 15.70972 | 22758 ft | 427 kts | 335° |
| 2026-04-22 17:50 | 48.80510 | 15.68745 | 23115 ft | 430 kts | 335° |
| 2026-04-22 17:50 | 48.83121 | 15.66501 | 23469 ft | 432 kts | 335° |
| 2026-04-22 17:50 | 48.85746 | 15.64238 | 23798 ft | 435 kts | 335° |
| 2026-04-22 17:50 | 48.88386 | 15.61961 | 24075 ft | 437 kts | 335° |
| 2026-04-22 17:51 | 48.91039 | 15.59671 | 24359 ft | 440 kts | 335° |
| 2026-04-22 17:51 | 48.93675 | 15.57391 | 24588 ft | 443 kts | 335° |
| 2026-04-22 17:51 | 48.96362 | 15.55062 | 24836 ft | 446 kts | 335° |
| 2026-04-22 17:51 | 48.99064 | 15.52714 | 25067 ft | 448 kts | 335° |
| 2026-04-22 17:52 | 49.01777 | 15.50352 | 25306 ft | 451 kts | 335° |
| 2026-04-22 17:52 | 49.04508 | 15.47972 | 25561 ft | 453 kts | 335° |
| 2026-04-22 17:52 | 49.07251 | 15.45579 | 25783 ft | 455 kts | 335° |
| 2026-04-22 17:52 | 49.10004 | 15.43174 | 26012 ft | 457 kts | 336° |
| 2026-04-22 17:53 | 49.12772 | 15.40755 | 26232 ft | 459 kts | 336° |
| 2026-04-22 17:53 | 49.15550 | 15.38325 | 26451 ft | 461 kts | 336° |
| 2026-04-22 17:53 | 49.18338 | 15.35882 | 26629 ft | 464 kts | 336° |
| 2026-04-22 17:53 | 49.21149 | 15.33415 | 26817 ft | 467 kts | 336° |
| 2026-04-22 17:54 | 49.23966 | 15.30939 | 27077 ft | 467 kts | 336° |
| 2026-04-22 17:54 | 49.26780 | 15.28459 | 27358 ft | 467 kts | 336° |
| 2026-04-22 17:54 | 49.29598 | 15.25972 | 27614 ft | 467 kts | 336° |
| 2026-04-22 17:54 | 49.32412 | 15.23490 | 27889 ft | 467 kts | 336° |
| 2026-04-22 17:55 | 49.34280 | 15.21841 | 28083 ft | 468 kts | 336° |
| 2026-04-22 17:55 | 49.38053 | 15.18507 | 28466 ft | 468 kts | 336° |
| 2026-04-22 17:55 | 49.40874 | 15.16013 | 28744 ft | 468 kts | 336° |
| 2026-04-22 17:55 | 49.43702 | 15.13509 | 29002 ft | 469 kts | 336° |
| 2026-04-22 17:56 | 49.46529 | 15.10998 | 29256 ft | 470 kts | 336° |
| 2026-04-22 17:56 | 49.49363 | 15.08471 | 29535 ft | 471 kts | 337° |
| 2026-04-22 17:56 | 49.52200 | 15.05941 | 29805 ft | 471 kts | 337° |
| 2026-04-22 17:56 | 49.55044 | 15.03408 | 30106 ft | 472 kts | 337° |
| 2026-04-22 17:57 | 49.57892 | 15.00871 | 30388 ft | 472 kts | 337° |
| 2026-04-22 17:57 | 49.60726 | 14.98339 | 30628 ft | 472 kts | 336° |
| 2026-04-22 17:57 | 49.63524 | 14.95830 | 30927 ft | 470 kts | 336° |
| 2026-04-22 17:57 | 49.66345 | 14.93295 | 31230 ft | 469 kts | 336° |
| 2026-04-22 17:58 | 49.69155 | 14.90767 | 31528 ft | 467 kts | 336° |
| 2026-04-22 17:58 | 49.71961 | 14.88242 | 31836 ft | 465 kts | 336° |
| 2026-04-22 17:58 | 49.74752 | 14.85727 | 32149 ft | 464 kts | 336° |
| 2026-04-22 17:58 | 49.77535 | 14.83215 | 32461 ft | 462 kts | 336° |
| 2026-04-22 17:59 | 49.80305 | 14.80712 | 32766 ft | 460 kts | 335° |
| 2026-04-22 17:59 | 49.83064 | 14.78220 | 33082 ft | 459 kts | 335° |
| 2026-04-22 17:59 | 49.85823 | 14.75729 | 33400 ft | 457 kts | 335° |
| 2026-04-22 17:59 | 49.88565 | 14.73250 | 33711 ft | 455 kts | 335° |
| 2026-04-22 18:00 | 49.90372 | 14.71615 | 33919 ft | 454 kts | 335° |
| 2026-04-22 18:00 | 49.94016 | 14.68313 | 34309 ft | 452 kts | 335° |
| 2026-04-22 18:00 | 49.96731 | 14.65844 | 34534 ft | 452 kts | 335° |
| 2026-04-22 18:00 | 49.99439 | 14.63374 | 34749 ft | 451 kts | 335° |
| 2026-04-22 18:01 | 50.02146 | 14.60900 | 34968 ft | 451 kts | 335° |
| 2026-04-22 18:01 | 50.04852 | 14.58425 | 35188 ft | 450 kts | 335° |
| 2026-04-22 18:01 | 50.07549 | 14.55955 | 35405 ft | 450 kts | 334° |
| 2026-04-22 18:01 | 50.10238 | 14.53490 | 35611 ft | 449 kts | 334° |
| 2026-04-22 18:02 | 50.12940 | 14.51011 | 35810 ft | 449 kts | 334° |
| 2026-04-22 18:02 | 50.15627 | 14.48542 | 36009 ft | 448 kts | 334° |
| 2026-04-22 18:02 | 50.18311 | 14.46077 | 36189 ft | 448 kts | 334° |
| 2026-04-22 18:03 | 50.23676 | 14.41145 | 36250 ft | 452 kts | 334° |
| 2026-04-22 18:03 | 50.29107 | 14.36138 | 36266 ft | 453 kts | 334° |
| 2026-04-22 18:04 | 50.34540 | 14.31097 | 36273 ft | 454 kts | 334° |
| 2026-04-22 18:04 | 50.39970 | 14.26046 | 36270 ft | 454 kts | 334° |
| 2026-04-22 18:05 | 50.45398 | 14.20987 | 36269 ft | 454 kts | 333° |
| 2026-04-22 18:05 | 50.50798 | 14.15947 | 36265 ft | 455 kts | 334° |
| 2026-04-22 18:06 | 50.56241 | 14.10856 | 36273 ft | 456 kts | 334° |
| 2026-04-22 18:06 | 50.61685 | 14.05748 | 36271 ft | 456 kts | 334° |
| 2026-04-22 18:07 | 50.66254 | 14.01448 | 36274 ft | 456 kts | 334° |
| 2026-04-22 18:07 | 50.72586 | 13.95470 | 36280 ft | 456 kts | 333° |
| 2026-04-22 18:08 | 50.78032 | 13.90314 | 36269 ft | 457 kts | 334° |
| 2026-04-22 18:08 | 50.83442 | 13.85009 | 36264 ft | 459 kts | 331° |
| 2026-04-22 18:09 | 50.88705 | 13.79257 | 36272 ft | 461 kts | 329° |
| 2026-04-22 18:09 | 50.93926 | 13.73362 | 36275 ft | 461 kts | 329° |
| 2026-04-22 18:10 | 50.99179 | 13.67546 | 36279 ft | 460 kts | 330° |
| 2026-04-22 18:10 | 51.04460 | 13.61772 | 36263 ft | 461 kts | 330° |
| 2026-04-22 18:11 | 51.09708 | 13.56025 | 36265 ft | 461 kts | 330° |
| 2026-04-22 18:11 | 51.14986 | 13.50195 | 36265 ft | 462 kts | 330° |
| 2026-04-22 18:12 | 51.19378 | 13.45327 | 36268 ft | 462 kts | 330° |
| 2026-04-22 18:12 | 51.24663 | 13.39461 | 36266 ft | 462 kts | 330° |
| 2026-04-22 18:13 | 51.29943 | 13.33581 | 36257 ft | 462 kts | 330° |
| 2026-04-22 18:13 | 51.35224 | 13.27682 | 36261 ft | 463 kts | 330° |
| 2026-04-22 18:14 | 51.40508 | 13.21769 | 36265 ft | 464 kts | 330° |
| 2026-04-22 18:14 | 51.45757 | 13.15882 | 36266 ft | 464 kts | 330° |
| 2026-04-22 18:15 | 51.51048 | 13.09930 | 36280 ft | 464 kts | 330° |
| 2026-04-22 18:15 | 51.56336 | 13.03956 | 36254 ft | 465 kts | 330° |
| 2026-04-22 18:16 | 51.61688 | 12.98133 | 36262 ft | 464 kts | 332° |
| 2026-04-22 18:16 | 51.67155 | 12.92600 | 36259 ft | 464 kts | 333° |
| 2026-04-22 18:17 | 51.72624 | 12.87080 | 36280 ft | 465 kts | 333° |
| 2026-04-22 18:17 | 51.78040 | 12.81486 | 36285 ft | 465 kts | 332° |
| 2026-04-22 18:18 | 51.83474 | 12.75794 | 36274 ft | 466 kts | 332° |
| 2026-04-22 18:18 | 51.88928 | 12.70081 | 36261 ft | 467 kts | 332° |
| 2026-04-22 18:19 | 51.94397 | 12.64376 | 36273 ft | 468 kts | 333° |
| 2026-04-22 18:19 | 51.99878 | 12.58643 | 36283 ft | 468 kts | 332° |
| 2026-04-22 18:20 | 52.05344 | 12.52887 | 36291 ft | 469 kts | 332° |
| 2026-04-22 18:20 | 52.10810 | 12.47102 | 36274 ft | 469 kts | 333° |
| 2026-04-22 18:21 | 52.16297 | 12.41298 | 36288 ft | 471 kts | 333° |
| 2026-04-22 18:21 | 52.21764 | 12.35506 | 36279 ft | 471 kts | 332° |
| 2026-04-22 18:22 | 52.27262 | 12.29649 | 36302 ft | 472 kts | 332° |
| 2026-04-22 18:22 | 52.32753 | 12.23766 | 36309 ft | 472 kts | 332° |
| 2026-04-22 18:23 | 52.38251 | 12.17857 | 36302 ft | 473 kts | 333° |
| 2026-04-22 18:23 | 52.43757 | 12.11950 | 36294 ft | 474 kts | 333° |
| 2026-04-22 18:24 | 52.52048 | 12.03023 | 36148 ft | 477 kts | 332° |
| 2026-04-22 18:24 | 52.57569 | 11.97033 | 35108 ft | 480 kts | 333° |
| 2026-04-22 18:25 | 52.60399 | 11.93955 | 34600 ft | 484 kts | 333° |
| 2026-04-22 18:25 | 52.63182 | 11.90928 | 34078 ft | 488 kts | 333° |
| 2026-04-22 18:25 | 52.65979 | 11.87739 | 33470 ft | 487 kts | 331° |
| 2026-04-22 18:26 | 52.71326 | 11.81004 | 32356 ft | 479 kts | 327° |
| 2026-04-22 18:26 | 52.73912 | 11.77588 | 31814 ft | 474 kts | 327° |
| 2026-04-22 18:26 | 52.76475 | 11.74201 | 31282 ft | 468 kts | 327° |
| 2026-04-22 18:26 | 52.79009 | 11.70889 | 30757 ft | 463 kts | 327° |
| 2026-04-22 18:27 | 52.81544 | 11.67624 | 30221 ft | 458 kts | 327° |
| 2026-04-22 18:27 | 52.84057 | 11.64419 | 29606 ft | 454 kts | 326° |
| 2026-04-22 18:27 | 52.86544 | 11.61259 | 29015 ft | 449 kts | 326° |
| 2026-04-22 18:27 | 52.89017 | 11.58122 | 28431 ft | 445 kts | 326° |
| 2026-04-22 18:28 | 52.91461 | 11.55015 | 27864 ft | 441 kts | 326° |
| 2026-04-22 18:28 | 52.93910 | 11.51894 | 27308 ft | 452 kts | 326° |
| 2026-04-22 18:28 | 52.96416 | 11.48691 | 26760 ft | 455 kts | 325° |
| 2026-04-22 18:28 | 52.98881 | 11.45524 | 26228 ft | 452 kts | 325° |
| 2026-04-22 18:29 | 53.01384 | 11.42291 | 25695 ft | 448 kts | 325° |
| 2026-04-22 18:29 | 53.03793 | 11.39171 | 25190 ft | 443 kts | 324° |
| 2026-04-22 18:29 | 53.06210 | 11.36044 | 24680 ft | 438 kts | 324° |
| 2026-04-22 18:29 | 53.08610 | 11.32950 | 24364 ft | 434 kts | 324° |
| 2026-04-22 18:30 | 53.10990 | 11.29894 | 24277 ft | 432 kts | 324° |
| 2026-04-22 18:30 | 53.15839 | 11.23939 | 23785 ft | 433 kts | 327° |
| 2026-04-22 18:30 | 53.18362 | 11.21055 | 22983 ft | 443 kts | 328° |
| 2026-04-22 18:31 | 53.20912 | 11.18195 | 22200 ft | 441 kts | 328° |
| 2026-04-22 18:31 | 53.23445 | 11.15351 | 21420 ft | 438 kts | 328° |
| 2026-04-22 18:31 | 53.25961 | 11.12498 | 20685 ft | 435 kts | 327° |
| 2026-04-22 18:31 | 53.28446 | 11.09643 | 19945 ft | 432 kts | 327° |
| 2026-04-22 18:32 | 53.30904 | 11.06790 | 19215 ft | 429 kts | 327° |
| 2026-04-22 18:32 | 53.33348 | 11.03934 | 18487 ft | 426 kts | 327° |
| 2026-04-22 18:32 | 53.35734 | 11.01142 | 17685 ft | 423 kts | 327° |
| 2026-04-22 18:32 | 53.38140 | 10.98325 | 16881 ft | 421 kts | 327° |
| 2026-04-22 18:33 | 53.40532 | 10.95527 | 16124 ft | 418 kts | 327° |
| 2026-04-22 18:33 | 53.42915 | 10.92746 | 15370 ft | 415 kts | 327° |
| 2026-04-22 18:33 | 53.45266 | 10.89995 | 14620 ft | 405 kts | 327° |
| 2026-04-22 18:33 | 53.47524 | 10.87339 | 13876 ft | 387 kts | 327° |
| 2026-04-22 18:34 | 53.49679 | 10.84799 | 13106 ft | 371 kts | 327° |
| 2026-04-22 18:34 | 53.51743 | 10.82366 | 12468 ft | 353 kts | 327° |
| 2026-04-22 18:34 | 53.53713 | 10.80047 | 11866 ft | 338 kts | 327° |
| 2026-04-22 18:34 | 53.55595 | 10.77829 | 11420 ft | 320 kts | 327° |
| 2026-04-22 18:35 | 53.57346 | 10.75761 | 11303 ft | 294 kts | 327° |
| 2026-04-22 18:35 | 53.58993 | 10.73815 | 11315 ft | 286 kts | 327° |
| 2026-04-22 18:35 | 53.60582 | 10.71833 | 11320 ft | 285 kts | 319° |
| 2026-04-22 18:35 | 53.61804 | 10.69200 | 11323 ft | 289 kts | 300° |
| 2026-04-22 18:36 | 53.62446 | 10.65847 | 11322 ft | 320 kts | 278° |
| 2026-04-22 18:36 | 53.62248 | 10.61983 | 11333 ft | 335 kts | 255° |
| 2026-04-22 18:36 | 53.61355 | 10.58504 | 11321 ft | 320 kts | 245° |
| 2026-04-22 18:36 | 53.60361 | 10.55244 | 11328 ft | 308 kts | 244° |
| 2026-04-22 18:37 | 53.59377 | 10.52069 | 11331 ft | 305 kts | 244° |
| 2026-04-22 18:37 | 53.58392 | 10.48910 | 11330 ft | 304 kts | 244° |
| 2026-04-22 18:37 | 53.57727 | 10.46774 | 11325 ft | 304 kts | 244° |
| 2026-04-22 18:37 | 53.56420 | 10.42589 | 10951 ft | 305 kts | 244° |
| 2026-04-22 18:38 | 53.55438 | 10.39463 | 10446 ft | 300 kts | 244° |
| 2026-04-22 18:38 | 53.54464 | 10.36377 | 9895 ft | 297 kts | 244° |
| 2026-04-22 18:38 | 53.53501 | 10.33326 | 9332 ft | 293 kts | 244° |
| 2026-04-22 18:39 | 53.51864 | 10.27193 | 8257 ft | 281 kts | 266° |
| 2026-04-22 18:39 | 53.52050 | 10.24024 | 7732 ft | 271 kts | 294° |
| 2026-04-22 18:39 | 53.53071 | 10.21450 | 7186 ft | 263 kts | 321° |
| 2026-04-22 18:39 | 53.54661 | 10.20069 | 6641 ft | 258 kts | 349° |
| 2026-04-22 18:40 | 53.56434 | 10.20198 | 6138 ft | 256 kts | 18° |
| 2026-04-22 18:40 | 53.57994 | 10.21649 | 5758 ft | 258 kts | 33° |
| 2026-04-22 18:40 | 53.59441 | 10.23409 | 5331 ft | 255 kts | 34° |
| 2026-04-22 18:40 | 53.60844 | 10.25167 | 4634 ft | 253 kts | 34° |
| 2026-04-22 18:41 | 53.62253 | 10.26937 | 4118 ft | 253 kts | 34° |
| 2026-04-22 18:41 | 53.63668 | 10.28734 | 3999 ft | 256 kts | 34° |
| 2026-04-22 18:41 | 53.65087 | 10.30554 | 4002 ft | 257 kts | 34° |
| 2026-04-22 18:41 | 53.66512 | 10.32372 | 3981 ft | 257 kts | 34° |
| 2026-04-22 18:42 | 53.67933 | 10.34183 | 3978 ft | 256 kts | 34° |
| 2026-04-22 18:42 | 53.69352 | 10.36006 | 3980 ft | 256 kts | 34° |
| 2026-04-22 18:42 | 53.70770 | 10.37828 | 3977 ft | 255 kts | 34° |
| 2026-04-22 18:42 | 53.72138 | 10.39583 | 3971 ft | 238 kts | 35° |
| 2026-04-22 18:43 | 53.73409 | 10.41234 | 3970 ft | 226 kts | 35° |
| 2026-04-22 18:43 | 53.74653 | 10.42849 | 3970 ft | 225 kts | 35° |
| 2026-04-22 18:43 | 53.75943 | 10.44341 | 3967 ft | 223 kts | 19° |
| 2026-04-22 18:43 | 53.77437 | 10.44651 | 3969 ft | 217 kts | 346° |
| 2026-04-22 18:44 | 53.78804 | 10.43620 | 3968 ft | 217 kts | 322° |
| 2026-04-22 18:44 | 53.79675 | 10.41572 | 3973 ft | 220 kts | 289° |
| 2026-04-22 18:44 | 53.79781 | 10.38968 | 3974 ft | 226 kts | 268° |
| 2026-04-22 18:44 | 53.79598 | 10.36318 | 3969 ft | 227 kts | 265° |
| 2026-04-22 18:45 | 53.79451 | 10.34569 | 3971 ft | 227 kts | 265° |
| 2026-04-22 18:45 | 53.78862 | 10.31173 | 4001 ft | 232 kts | 239° |
| 2026-04-22 18:45 | 53.77854 | 10.29014 | 4005 ft | 235 kts | 233° |
| 2026-04-22 18:45 | 53.76809 | 10.26890 | 4006 ft | 235 kts | 233° |
| 2026-04-22 18:46 | 53.75767 | 10.24762 | 3827 ft | 235 kts | 234° |
| 2026-04-22 18:46 | 53.74732 | 10.22642 | 3538 ft | 232 kts | 233° |
| 2026-04-22 18:46 | 53.73710 | 10.20553 | 3228 ft | 229 kts | 234° |
| 2026-04-22 18:46 | 53.72697 | 10.18483 | 2926 ft | 227 kts | 233° |
| 2026-04-22 18:47 | 53.71693 | 10.16432 | 2611 ft | 226 kts | 234° |
| 2026-04-22 18:47 | 53.70695 | 10.14396 | 2299 ft | 224 kts | 234° |
| 2026-04-22 18:47 | 53.69705 | 10.12377 | 2000 ft | 223 kts | 234° |
| 2026-04-22 18:47 | 53.68729 | 10.10390 | 1692 ft | 223 kts | 234° |
| 2026-04-22 18:48 | 53.67747 | 10.08393 | 1414 ft | 215 kts | 235° |
| 2026-04-22 18:48 | 53.66823 | 10.06517 | 1102 ft | 202 kts | 234° |
| 2026-04-22 18:48 | 53.65966 | 10.04776 | 861 ft | 180 kts | 236° |
| 2026-04-22 18:48 | 53.65203 | 10.03254 | 676 ft | 154 kts | 236° |
| 2026-04-22 18:49 | 53.64554 | 10.01946 | 432 ft | 142 kts | 236° |
| 2026-04-22 18:49 | 53.63943 | 10.00674 | 222 ft | 140 kts | 237° |
| 2026-04-22 18:49 | 53.63343 | 9.99444 | 50 ft | 129 kts | 235° |
| 2026-04-22 18:49 | 53.62860 | 9.98461 | 44 ft | 87 kts | 231° |
| 2026-04-22 18:50 | 53.62586 | 9.97916 | 41 ft | 41 kts | 230° |
| 2026-04-22 18:50 | 53.62473 | 9.97801 | 39 ft | 11 kts | 160° |
| 2026-04-22 18:50 | 53.62450 | 9.97822 | 42 ft | 8 kts | 148° |
| 2026-04-22 18:50 | 53.62429 | 9.97883 | 45 ft | 8 kts | 97° |
| 2026-04-22 18:51 | 53.62446 | 9.98026 | 47 ft | 12 kts | 74° |
| 2026-04-22 18:51 | 53.62490 | 9.98148 | 47 ft | 16 kts | 50° |
| 2026-04-22 18:51 | 53.62576 | 9.98317 | 47 ft | 19 kts | 50° |
| 2026-04-22 18:51 | 53.62659 | 9.98492 | 47 ft | 18 kts | 51° |
| 2026-04-22 18:52 | 53.62738 | 9.98650 | 47 ft | 17 kts | 52° |
| 2026-04-22 18:52 | 53.62808 | 9.98795 | 47 ft | 15 kts | 51° |
| 2026-04-22 18:52 | 53.62880 | 9.98942 | 47 ft | 21 kts | 50° |
| 2026-04-22 18:52 | 53.62987 | 9.99153 | 47 ft | 24 kts | 50° |
| 2026-04-22 18:53 | 53.63070 | 9.99331 | 47 ft | 13 kts | 55° |
| 2026-04-22 18:53 | 53.63082 | 9.99360 | 47 ft | 0 kts | 54° |
| 2026-04-22 18:53 | 53.63085 | 9.99367 | 47 ft | 4 kts | 54° |
| 2026-04-22 18:53 | 53.63120 | 9.99454 | 46 ft | 11 kts | 56° |
| 2026-04-22 18:54 | 53.63161 | 9.99550 | 46 ft | 10 kts | 51° |
| 2026-04-22 18:54 | 53.63206 | 9.99638 | 48 ft | 9 kts | 50° |
| 2026-04-22 18:54 | 53.63217 | 9.99660 | 48 ft | 0 kts | 50° |
| 2026-04-22 18:54 | 53.63219 | 9.99749 | 48 ft | 12 kts | 120° |
| 2026-04-22 18:55 | 53.63156 | 9.99821 | 48 ft | 10 kts | 150° |
| 2026-04-22 18:55 | 53.63127 | 9.99911 | 48 ft | 8 kts | 84° |
| 2026-04-22 18:55 | 53.63156 | 9.99986 | 48 ft | 7 kts | 50° |
| 2026-04-22 18:55 | 53.63205 | 10.00084 | 48 ft | 11 kts | 51° |
| 2026-04-22 18:56 | 53.63202 | 10.00191 | 48 ft | 9 kts | 121° |
| 2026-04-22 18:56 | 53.63165 | 10.00289 | 48 ft | 8 kts | 112° |
| 2026-04-22 18:56 | 53.63167 | 10.00353 | 48 ft | 4 kts | 82° |
| 2026-04-22 18:56 | 53.63168 | 10.00369 | 48 ft | 1 kts | 85° |
| 2026-04-22 18:57 | 53.63168 | 10.00373 | 48 ft | 0 kts | 85° |